Time;durP1;ratioP1;P1;durP2;ratioP2;P2;SDS_P1;SDS_P2;PMS_P1;PMS_P2;Temp;Humidity;BMP_temperature;BMP_pressure;BME280_temperature;BME280_humidity;BME280_pressure;Samples;Min_cycle;Max_cycle;Signal;HPM_P1;HPM_P2
2023/08/31 00:02:14;;;;;;;3.20;0.90;;;;;;;;;;5008902;28;20383;-76
2023/08/31 00:04:40;;;;;;;1.35;0.68;;;;;;;;;;5008931;28;20068;-76
2023/08/31 00:07:06;;;;;;;2.67;1.00;;;;;;;;;;5008633;28;20026;-77
2023/08/31 00:09:32;;;;;;;2.67;1.15;;;;;;;;;;5009069;28;20080;-77
2023/08/31 00:11:58;;;;;;;3.05;1.48;;;;;;;;;;5009087;28;20105;-77
2023/08/31 00:14:26;;;;;;;1.25;0.80;;;;;;;;;;5008803;28;20248;-77
2023/08/31 00:16:52;;;;;;;3.50;1.08;;;;;;;;;;5008676;28;20045;-77
2023/08/31 00:19:19;;;;;;;1.05;0.77;;;;;;;;;;5008634;28;20412;-77
2023/08/31 00:21:45;;;;;;;1.27;1.10;;;;;;;;;;5008871;28;20413;-77
2023/08/31 00:24:11;;;;;;;2.35;1.05;;;;;;;;;;5008577;28;20033;-77
2023/08/31 00:26:43;;;;;;;1.65;1.02;;;;;;;;;;5008533;28;20622;-77
2023/08/31 00:29:10;;;;;;;1.40;0.80;;;14.90;99.90;;;;;;5009055;28;20057;-77
2023/08/31 00:31:36;;;;;;;3.92;0.93;;;14.80;99.90;;;;;;5005654;28;20021;-76
2023/08/31 00:34:04;;;;;;;1.70;0.85;;;;;;;;;;5008718;28;20436;-77
2023/08/31 00:36:33;;;;;;;1.27;0.85;;;14.80;95.90;;;;;;5008445;28;20030;-77
2023/08/31 00:38:59;;;;;;;5.32;0.75;;;;;;;;;;5008666;28;20607;-76
2023/08/31 00:41:25;;;;;;;2.45;0.90;;;;;;;;;;5008980;28;20025;-77
2023/08/31 00:43:51;;;;;;;1.75;1.05;;;;;;;;;;5008215;28;20510;-76
2023/08/31 00:46:17;;;;;;;2.17;0.80;;;;;;;;;;5008548;28;20088;-77
2023/08/31 00:48:43;;;;;;;1.92;0.85;;;;;;;;;;5009857;28;20503;-76
2023/08/31 00:51:10;;;;;;;0.70;0.60;;;;;;;;;;5008010;28;20034;-76
2023/08/31 00:53:37;;;;;;;1.30;0.95;;;;;;;;;;5008709;28;20050;-76
2023/08/31 00:56:03;;;;;;;2.40;1.00;;;;;;;;;;5008858;28;20038;-77
2023/08/31 00:58:30;;;;;;;3.55;1.10;;;;;;;;;;5008586;28;20530;-76
2023/08/31 01:01:25;;;;;;;1.70;1.13;;;14.20;99.90;;;;;;5009012;28;20030;-77
2023/08/31 01:04:21;;;;;;;1.25;1.10;;;14.50;97.80;;;;;;4998716;28;20061;-77
2023/08/31 01:07:04;;;;;;;1.48;0.88;;;14.50;99.90;;;;;;5008082;28;20018;-77
2023/08/31 01:09:55;;;;;;;7.57;1.30;;;14.20;99.20;;;;;;5008637;28;20046;-77
2023/08/31 01:12:30;;;;;;;1.08;0.73;;;14.30;99.90;;;;;;5008640;28;20033;-77
2023/08/31 01:15:16;;;;;;;1.52;1.20;;;14.20;98.60;;;;;;5007939;28;20399;-77
2023/08/31 01:17:52;;;;;;;1.45;0.88;;;14.10;99.90;;;;;;5008254;28;20071;-77
2023/08/31 01:20:22;;;;;;;1.95;0.70;;;;;;;;;;5006945;28;20494;-77
2023/08/31 01:23:05;;;;;;;0.68;0.50;;;;;;;;;;5011334;28;20030;-77
2023/08/31 01:25:33;;;;;;;2.72;0.80;;;14.00;99.90;;;;;;5010291;28;20112;-77
2023/08/31 01:27:59;;;;;;;1.15;1.02;;;13.90;99.90;;;;;;5011798;28;20042;-77
2023/08/31 01:30:25;;;;;;;1.60;0.80;;;;;;;;;;5011594;28;20546;-77
2023/08/31 01:32:52;;;;;;;1.75;0.75;;;;;;;;;;5011761;28;20041;-77
2023/08/31 01:35:19;;;;;;;3.33;0.95;;;13.80;99.90;;;;;;5011193;28;20040;-77
2023/08/31 01:38:08;;;;;;;1.20;1.10;;;13.90;99.90;;;;;;5011823;28;20033;-77
2023/08/31 01:41:08;;;;;;;4.13;0.77;;;13.90;99.90;;;;;;5011633;28;20026;-77
2023/08/31 01:43:35;;;;;;;1.60;0.88;;;13.80;99.90;;;;;;5008696;28;20038;-76
2023/08/31 01:46:01;;;;;;;1.58;1.05;;;;;;;;;;5008811;28;20026;-77
2023/08/31 01:48:27;;;;;;;4.78;1.08;;;;;;;;;;5008562;28;20044;-77
2023/08/31 01:50:53;;;;;;;2.03;1.00;;;;;;;;;;5008986;28;20438;-76
2023/08/31 01:53:19;;;;;;;2.00;1.15;;;;;;;;;;5011199;28;20038;-76
2023/08/31 01:55:45;;;;;;;2.63;1.20;;;;;;;;;;5007281;28;20109;-77
2023/08/31 01:58:11;;;;;;;7.13;3.03;;;;;;;;;;5008419;28;20018;-76
2023/08/31 02:00:38;;;;;;;1.73;0.93;;;13.50;99.90;;;;;;5008432;28;20046;-76
2023/08/31 02:03:04;;;;;;;1.75;1.10;;;;;;;;;;5007900;28;20029;-77
2023/08/31 02:05:30;;;;;;;1.85;1.20;;;;;;;;;;5008352;28;20042;-77
2023/08/31 02:07:56;;;;;;;1.90;1.02;;;;;;;;;;5008397;28;20739;-76
2023/08/31 02:10:22;;;;;;;0.80;0.70;;;;;;;;;;5008239;28;20038;-77
2023/08/31 02:12:48;;;;;;;2.45;1.15;;;;;;;;;;4991579;28;20108;-76
2023/08/31 02:15:14;;;;;;;0.88;0.57;;;;;;;;;;5007707;28;20048;-77
2023/08/31 02:17:40;;;;;;;0.90;0.80;;;;;;;;;;5007481;28;20049;-76
2023/08/31 02:20:08;;;;;;;0.98;0.80;;;13.50;99.90;;;;;;5010458;28;20038;-76
2023/08/31 02:22:34;;;;;;;2.83;1.13;;;14.10;99.90;;;;;;5010379;28;20034;-77
2023/08/31 02:25:01;;;;;;;1.35;1.08;;;;;;;;;;5008840;28;20038;-77
2023/08/31 02:27:27;;;;;;;2.80;1.13;;;;;;;;;;5010516;28;20022;-76
2023/08/31 02:29:52;;;;;;;1.67;1.42;;;13.40;99.90;;;;;;5009190;28;20296;-77
2023/08/31 02:32:18;;;;;;;2.65;0.90;;;;;;;;;;5010126;28;20097;-77
2023/08/31 02:34:44;;;;;;;0.95;0.82;;;;;;;;;;5009446;28;20790;-77
2023/08/31 02:37:10;;;;;;;2.17;0.70;;;;;;;;;;5010355;28;20030;-77
2023/08/31 02:39:36;;;;;;;1.27;0.77;;;;;;;;;;5010449;28;20478;-76
2023/08/31 02:42:02;;;;;;;1.38;0.80;;;;;;;;;;5010279;28;20040;-77
2023/08/31 02:44:28;;;;;;;0.95;0.63;;;;;;;;;;5010207;28;20474;-77
2023/08/31 02:46:54;;;;;;;1.13;0.80;;;;;;;;;;5013072;28;20030;-76
2023/08/31 02:49:20;;;;;;;1.50;0.70;;;;;;;;;;5010016;28;20048;-77
2023/08/31 02:51:47;;;;;;;1.20;0.90;;;;;;;;;;5008472;28;20026;-76
2023/08/31 02:54:13;;;;;;;2.75;1.70;;;12.70;99.90;;;;;;5010288;28;20033;-77
2023/08/31 02:56:39;;;;;;;1.50;1.05;;;;;;;;;;5010172;28;20517;-76
2023/08/31 02:59:05;;;;;;;2.03;0.95;;;;;;;;;;5009764;28;20571;-76
2023/08/31 03:01:31;;;;;;;1.33;0.73;;;;;;;;;;5010029;28;20030;-76
2023/08/31 03:03:57;;;;;;;0.88;0.88;;;;;;;;;;5009965;28;20018;-76
2023/08/31 03:06:23;;;;;;;2.08;1.10;;;;;;;;;;5009841;28;20026;-76
2023/08/31 03:08:49;;;;;;;1.73;0.88;;;;;;;;;;5009703;28;20064;-77
2023/08/31 03:11:15;;;;;;;1.33;0.70;;;;;;;;;;5009598;28;20057;-76
2023/08/31 03:13:41;;;;;;;2.70;1.38;;;;;;;;;;5009850;28;20104;-77
2023/08/31 03:16:08;;;;;;;3.88;1.85;;;;;;;;;;5009384;28;20045;-77
2023/08/31 03:18:34;;;;;;;3.30;0.82;;;;;;;;;;5009156;28;20035;-77
2023/08/31 03:21:00;;;;;;;2.28;0.90;;;;;;;;;;5009312;28;20022;-77
2023/08/31 03:23:26;;;;;;;3.22;1.05;;;;;;;;;;5009588;28;20018;-76
2023/08/31 03:25:52;;;;;;;2.45;1.10;;;;;;;;;;5008079;28;20025;-77
2023/08/31 03:28:18;;;;;;;2.10;0.95;;;;;;;;;;5009425;28;20643;-77
2023/08/31 03:30:45;;;;;;;1.52;0.60;;;;;;;;;;5009263;28;20026;-76
2023/08/31 03:33:12;;;;;;;2.57;0.70;;;;;;;;;;5009161;28;20033;-77
2023/08/31 03:35:38;;;;;;;1.50;0.93;;;;;;;;;;5009646;28;20018;-76
2023/08/31 03:38:04;;;;;;;1.40;1.15;;;;;;;;;;5009241;28;20022;-77
2023/08/31 03:40:30;;;;;;;6.90;2.13;;;;;;;;;;5009393;28;20026;-76
2023/08/31 03:42:56;;;;;;;2.00;1.20;;;;;;;;;;5008783;28;20028;-77
2023/08/31 03:45:22;;;;;;;1.92;0.90;;;;;;;;;;5011351;28;20029;-77
2023/08/31 03:47:48;;;;;;;7.38;1.00;;;;;;;;;;5007478;28;20034;-77
2023/08/31 03:50:14;;;;;;;2.25;0.85;;;;;;;;;;5008120;28;20068;-77
2023/08/31 03:52:39;;;;;;;1.25;1.15;;;;;;;;;;5008927;28;20176;-77
2023/08/31 03:55:06;;;;;;;1.25;0.88;;;;;;;;;;5009313;28;20415;-76
2023/08/31 03:57:32;;;;;;;2.38;1.55;;;;;;;;;;5008752;28;20030;-77
2023/08/31 03:59:58;;;;;;;2.58;1.20;;;;;;;;;;5009272;28;20074;-77
2023/08/31 04:02:24;;;;;;;3.25;1.20;;;;;;;;;;5008985;28;21489;-77
2023/08/31 04:04:50;;;;;;;1.75;0.95;;;;;;;;;;5008869;28;20491;-76
2023/08/31 04:07:16;;;;;;;3.85;0.85;;;;;;;;;;5008704;28;20022;-77
2023/08/31 04:09:42;;;;;;;1.55;1.00;;;;;;;;;;5008817;28;20056;-77
2023/08/31 04:12:08;;;;;;;1.20;0.93;;;;;;;;;;5008906;28;20113;-77
2023/08/31 04:14:34;;;;;;;1.30;1.00;;;;;;;;;;5008939;28;20038;-77
2023/08/31 04:17:00;;;;;;;1.83;0.60;;;;;;;;;;5008883;28;20563;-77
2023/08/31 04:19:26;;;;;;;1.30;0.88;;;;;;;;;;5009035;28;20029;-77
2023/08/31 04:21:52;;;;;;;1.55;0.80;;;;;;;;;;5008481;28;20514;-77
2023/08/31 04:24:18;;;;;;;2.03;1.10;;;;;;;;;;5008909;28;20029;-77
2023/08/31 04:26:44;;;;;;;2.67;1.10;;;;;;;;;;5009273;28;20064;-77
2023/08/31 04:29:10;;;;;;;4.13;1.20;;;;;;;;;;5005602;28;20569;-77
2023/08/31 04:31:37;;;;;;;2.10;0.60;;;;;;;;;;5008511;28;20034;-77
2023/08/31 04:34:04;;;;;;;0.85;0.50;;;;;;;;;;5009446;28;20088;-77
2023/08/31 04:36:30;;;;;;;0.90;0.60;;;;;;;;;;5008308;28;20495;-77
2023/08/31 04:38:56;;;;;;;5.53;1.40;;;;;;;;;;5008839;28;20076;-77
2023/08/31 04:41:22;;;;;;;1.65;0.88;;;;;;;;;;5008694;28;20076;-76
2023/08/31 04:43:48;;;;;;;2.03;1.15;;;;;;;;;;5008333;28;20026;-77
2023/08/31 04:46:14;;;;;;;3.03;1.08;;;;;;;;;;5008351;28;20022;-77
2023/08/31 04:48:40;;;;;;;1.20;1.00;;;;;;;;;;5010565;28;20064;-76
2023/08/31 04:51:06;;;;;;;1.25;1.00;;;;;;;;;;5009899;28;20022;-76
2023/08/31 04:53:32;;;;;;;1.95;0.98;;;;;;;;;;5007308;28;20018;-76
2023/08/31 04:55:58;;;;;;;0.85;0.63;;;;;;;;;;5008585;28;20509;-76
2023/08/31 04:58:24;;;;;;;0.82;0.65;;;;;;;;;;5012467;28;20030;-77
2023/08/31 05:00:51;;;;;;;2.40;0.77;;;12.00;99.90;;;;;;5012620;28;20030;-76
2023/08/31 05:03:18;;;;;;;1.20;0.93;;;;;;;;;;5012580;28;20137;-77
2023/08/31 05:05:44;;;;;;;1.15;0.88;;;;;;;;;;5012112;28;20026;-77
2023/08/31 05:08:10;;;;;;;2.22;0.85;;;;;;;;;;5012031;28;20057;-77
2023/08/31 05:10:36;;;;;;;6.70;1.20;;;;;;;;;;5011958;28;20037;-77
2023/08/31 05:13:03;;;;;;;2.97;1.83;;;12.00;99.90;;;;;;5011658;28;20503;-76
2023/08/31 05:15:30;;;;;;;;;;;12.00;99.90;;;;;;5012515;28;20085;-76
2023/08/31 05:17:56;;;;;;;4.45;1.45;;;;;;;;;;5011737;28;19905;-77
2023/08/31 05:20:23;;;;;;;2.35;1.35;;;;;;;;;;5011368;28;20018;-76
2023/08/31 05:22:49;;;;;;;1.35;0.88;;;;;;;;;;5011869;28;20508;-77
2023/08/31 05:25:15;;;;;;;2.95;1.23;;;;;;;;;;5011786;28;20605;-77
2023/08/31 05:27:41;;;;;;;2.20;0.90;;;;;;;;;;5011458;28;20038;-77
2023/08/31 05:30:07;;;;;;;1.88;1.10;;;13.60;99.90;;;;;;5011226;28;20072;-77
2023/08/31 05:32:33;;;;;;;1.75;1.20;;;;;;;;;;5011759;28;20030;-76
2023/08/31 05:34:59;;;;;;;3.33;1.20;;;;;;;;;;5011692;28;20036;-80
2023/08/31 05:37:25;;;;;;;0.80;0.80;;;;;;;;;;5007697;28;20084;-80
2023/08/31 05:39:52;;;;;;;1.90;1.42;;;;;;;;;;5009702;28;20030;-79
2023/08/31 05:42:18;;;;;;;3.75;1.30;;;;;;;;;;5012695;28;20143;-80
2023/08/31 05:44:44;;;;;;;1.58;0.82;;;;;;;;;;5011117;28;20041;-79
2023/08/31 05:47:10;;;;;;;1.88;1.10;;;;;;;;;;5008063;28;20025;-80
2023/08/31 05:49:36;;;;;;;2.80;1.67;;;;;;;;;;5008630;28;20506;-79
2023/08/31 05:52:02;;;;;;;0.70;0.70;;;;;;;;;;5009189;28;20054;-80
2023/08/31 05:54:28;;;;;;;1.88;1.10;;;;;;;;;;5008184;28;20073;-79
2023/08/31 05:56:54;;;;;;;1.17;0.90;;;;;;;;;;5008752;28;20104;-79
2023/08/31 05:59:21;;;;;;;2.30;1.38;;;;;;;;;;5008596;28;20026;-79
2023/08/31 06:01:47;;;;;;;1.38;0.88;;;;;;;;;;5009331;28;20117;-74
2023/08/31 06:04:13;;;;;;;2.85;1.33;;;;;;;;;;5009306;28;20060;-76
2023/08/31 06:06:39;;;;;;;1.48;1.10;;;;;;;;;;5009630;28;20464;-74
2023/08/31 06:09:06;;;;;;;2.72;1.58;;;;;;;;;;5008460;28;20038;-74
2023/08/31 06:11:32;;;;;;;23.38;2.33;;;;;;;;;;5008064;28;20657;-74
2023/08/31 06:13:58;;;;;;;5.07;1.77;;;;;;;;;;5008108;28;20490;-74
2023/08/31 06:16:24;;;;;;;1.38;0.90;;;;;;;;;;5007926;28;20046;-74
2023/08/31 06:18:51;;;;;;;1.45;0.95;;;15.90;95.80;;;;;;5007887;28;20022;-73
2023/08/31 06:21:17;;;;;;;3.47;1.27;;;16.30;95.80;;;;;;5006293;28;20499;-74
2023/08/31 06:23:43;;;;;;;3.08;1.60;;;;;;;;;;5007912;28;20037;-74
2023/08/31 06:26:08;;;;;;;4.20;1.27;;;;;;;;;;5009136;28;20064;-75
2023/08/31 06:28:34;;;;;;;7.97;1.58;;;;;;;;;;5008678;28;20029;-74
2023/08/31 06:31:01;;;;;;;2.53;1.30;;;;;;;;;;5010449;28;20030;-79
2023/08/31 06:33:27;;;;;;;8.68;2.05;;;;;;;;;;4999782;28;20032;-78
2023/08/31 06:35:53;;;;;;;3.20;1.75;;;;;;;;;;5008553;28;20021;-79
2023/08/31 06:38:19;;;;;;;2.03;1.13;;;;;;;;;;5012601;28;20026;-87
2023/08/31 06:40:45;;;;;;;2.75;1.08;;;;;;;;;;5004496;28;20044;-79
2023/08/31 06:43:11;;;;;;;4.85;1.35;;;;;;;;;;5007003;28;20108;-80
2023/08/31 06:45:37;;;;;;;1.60;1.50;;;;;;;;;;5010411;28;20893;-79
2023/08/31 06:48:04;;;;;;;6.88;1.33;;;;;;;;;;5008482;28;20034;-79
2023/08/31 06:50:30;;;;;;;3.95;1.23;;;;;;;;;;5008719;28;20034;-79
2023/08/31 06:52:56;;;;;;;2.97;0.85;;;;;;;;;;5007891;28;20399;-79
2023/08/31 06:55:22;;;;;;;6.40;1.52;;;;;;;;;;5008656;28;20108;-79
2023/08/31 06:57:48;;;;;;;1.40;1.25;;;;;;;;;;5007724;28;20030;-79
2023/08/31 07:00:14;;;;;;;1.33;1.20;;;;;;;;;;5008475;28;20129;-80
2023/08/31 07:02:41;;;;;;;1.27;1.00;;;;;;;;;;5000071;28;20068;-80
2023/08/31 07:05:08;;;;;;;4.32;1.10;;;36.40;38.20;;;;;;5007596;28;20087;-80
2023/08/31 07:07:34;;;;;;;1.20;0.90;;;;;;;;;;5008654;28;20038;-80
2023/08/31 07:10:00;;;;;;;1.20;0.50;;;;;;;;;;5009006;28;20195;-80
2023/08/31 07:12:26;;;;;;;0.80;0.80;;;;;;;;;;5003560;28;20447;-78
2023/08/31 07:14:52;;;;;;;1.80;0.80;;;;;;;;;;5003744;28;20026;-78
2023/08/31 07:17:21;;;;;;;1.83;0.75;;;38.80;30.30;;;;;;5002609;28;20046;-74
2023/08/31 07:19:47;;;;;;;0.77;0.40;;;;;;;;;;5004654;28;20060;-94
2023/08/31 07:22:13;;;;;;;1.65;0.65;;;;;;;;;;5008503;28;20483;-79
2023/08/31 07:24:39;;;;;;;0.88;0.45;;;40.90;33.30;;;;;;5009958;28;20048;-85
2023/08/31 07:27:05;;;;;;;1.20;0.43;;;;;;;;;;5022117;28;20024;-79
2023/08/31 07:29:31;;;;;;;0.90;0.45;;;43.20;28.50;;;;;;5008827;28;20087;-79
2023/08/31 07:31:57;;;;;;;1.85;0.57;;;;;;;;;;5008524;28;20062;-79
2023/08/31 07:34:23;;;;;;;0.55;0.30;;;43.60;27.50;;;;;;5005669;28;20623;-80
2023/08/31 07:36:49;;;;;;;1.63;0.40;;;;;;;;;;5006595;28;20121;-80
2023/08/31 07:39:18;;;;;;;1.27;0.75;;;;;;;;;;5009338;28;20101;-79
2023/08/31 07:41:44;;;;;;;0.47;0.30;;;;;;;;;;5009101;28;20413;-79
2023/08/31 07:44:10;;;;;;;0.70;0.32;;;;;;;;;;5004933;28;20030;-79
2023/08/31 07:46:36;;;;;;;1.23;0.63;;;47.70;28.00;;;;;;5006710;28;20041;-79
2023/08/31 07:49:02;;;;;;;;;;;48.60;22.50;;;;;;5007502;28;20053;-79
2023/08/31 07:51:28;;;;;;;1.42;0.47;;;;;;;;;;5007976;28;19916;-80
2023/08/31 07:53:54;;;;;;;1.23;0.65;;;;;;;;;;5007776;28;20025;-80
2023/08/31 07:56:20;;;;;;;0.98;0.75;;;;;;;;;;5008327;28;20038;-79
2023/08/31 07:58:46;;;;;;;5.00;1.13;;;;;;;;;;5008180;28;20030;-80
2023/08/31 08:01:12;;;;;;;2.22;0.93;;;;;;;;;;5008392;28;20029;-80
2023/08/31 08:03:38;;;;;;;1.27;0.80;;;;;;;;;;5008224;28;20032;-81
2023/08/31 08:06:04;;;;;;;2.20;0.70;;;;;;;;;;5006490;28;20115;-80
2023/08/31 08:08:30;;;;;;;2.80;1.10;;;;;;;;;;5005586;28;20034;-88
2023/08/31 08:10:56;;;;;;;0.70;0.70;;;53.80;23.30;;;;;;5007104;28;20092;-81
2023/08/31 08:13:21;;;;;;;1.75;1.15;;;53.00;23.60;;;;;;5007613;28;20072;-81
2023/08/31 08:15:48;;;;;;;1.67;0.65;;;;;;;;;;5008081;28;20050;-81
2023/08/31 08:18:14;;;;;;;3.60;1.15;;;;;;;;;;5007800;28;20029;-81
2023/08/31 08:20:40;;;;;;;0.85;0.50;;;;;;;;;;5004975;28;20029;-80
2023/08/31 08:23:06;;;;;;;2.00;0.65;;;50.90;22.10;;;;;;5005639;28;20073;-80
2023/08/31 08:25:33;;;;;;;1.52;0.90;;;49.20;25.00;;;;;;5000927;28;20494;-81
2023/08/31 08:27:59;;;;;;;1.30;0.80;;;;;;;;;;5007106;28;20042;-81
2023/08/31 08:30:25;;;;;;;2.63;0.90;;;;;;;;;;5008091;28;20026;-81
2023/08/31 08:32:51;;;;;;;2.38;0.68;;;;;;;;;;5010728;28;20411;-81
2023/08/31 08:35:16;;;;;;;2.90;0.90;;;52.90;22.70;;;;;;5011068;28;20979;-81
2023/08/31 08:37:42;;;;;;;1.92;0.80;;;53.80;24.20;;;;;;5011903;28;20041;-81
2023/08/31 08:40:09;;;;;;;4.03;0.93;;;52.30;19.80;;;;;;5012293;28;20528;-81
2023/08/31 08:42:42;;;;;;;2.05;1.33;;;52.70;19.90;;;;;;5011202;28;20030;-81
2023/08/31 08:45:15;;;;;;;4.63;0.93;;;52.80;20.00;;;;;;5011468;28;20084;-81
2023/08/31 08:47:41;;;;;;;2.90;0.68;;;;;;;;;;5008892;28;20026;-81
2023/08/31 08:50:07;;;;;;;1.90;0.47;;;;;;;;;;5015327;28;20034;-81
2023/08/31 08:52:33;;;;;;;3.13;0.50;;;;;;;;;;5011592;28;20262;-81
2023/08/31 08:55:02;;;;;;;1.35;0.60;;;38.10;23.40;;;;;;5011645;28;20112;-81
2023/08/31 08:57:28;;;;;;;1.00;0.60;;;;;;;;;;5010662;28;20037;-80
2023/08/31 08:59:54;;;;;;;2.95;0.60;;;;;;;;;;5011132;28;20030;-81
2023/08/31 09:02:20;;;;;;;;;;;44.90;22.00;;;;;;5011045;28;20617;-81
2023/08/31 09:04:46;;;;;;;1.98;1.02;;;;;;;;;;5011200;28;20240;-81
2023/08/31 09:07:11;;;;;;;0.90;0.68;;;49.90;21.20;;;;;;5010368;28;20034;-81
2023/08/31 09:09:52;;;;;;;1.50;0.75;;;51.30;24.40;;;;;;5011615;28;20034;-80
2023/08/31 09:12:18;;;;;;;1.65;0.75;;;;;;;;;;5010744;28;20125;-81
2023/08/31 09:15:05;;;;;;;1.63;0.52;;;52.40;20.20;;;;;;5010345;28;20461;-81
2023/08/31 09:17:39;;;;;;;2.47;0.90;;;52.00;23.00;;;;;;4999772;28;20054;-89
2023/08/31 09:20:06;;;;;;;3.72;0.52;;;;;;;;;;5010496;28;20909;-88
2023/08/31 09:22:33;;;;;;;1.52;0.60;;;48.50;21.10;;;;;;5011214;28;20479;-81
2023/08/31 09:24:59;;;;;;;1.67;0.40;;;;;;;;;;5010569;28;20030;-83
2023/08/31 09:27:25;;;;;;;1.92;0.40;;;;;;;;;;5008625;28;20520;-82
2023/08/31 09:29:55;;;;;;;3.53;0.63;;;44.00;22.10;;;;;;5011074;28;20033;-83
2023/08/31 09:32:21;;;;;;;1.40;0.70;;;;;;;;;;5010640;28;20026;-81
2023/08/31 09:34:48;;;;;;;4.93;0.60;;;48.60;21.00;;;;;;5010583;28;20030;-81
2023/08/31 09:37:16;;;;;;;4.57;0.68;;;48.20;20.30;;;;;;5010388;28;20101;-84
2023/08/31 09:39:42;;;;;;;1.40;0.63;;;;;;;;;;5011546;28;20436;-83
2023/08/31 09:42:09;;;;;;;2.20;0.73;;;;;;;;;;5016831;28;20464;-84
2023/08/31 09:44:42;;;;;;;0.93;0.35;;;41.70;21.80;;;;;;5014088;28;20430;-85
2023/08/31 09:47:08;;;;;;;6.72;0.88;;;;;;;;;;5010719;28;20038;-84
2023/08/31 09:49:34;;;;;;;6.13;0.75;;;;;;;;;;5010369;28;20137;-85
2023/08/31 09:52:04;;;;;;;1.85;0.38;;;43.00;21.50;;;;;;5010718;28;20109;-86
2023/08/31 09:54:30;;;;;;;2.10;0.73;;;;;;;;;;5009567;28;20036;-80
2023/08/31 09:56:58;;;;;;;;;;;43.70;22.10;;;;;;5009657;28;20139;-86
2023/08/31 09:59:24;;;;;;;3.78;0.55;;;;;;;;;;5010803;28;20362;-83
2023/08/31 10:01:50;;;;;;;1.25;0.40;;;;;;;;;;5010382;28;20022;-82
2023/08/31 10:04:16;;;;;;;1.42;0.70;;;;;;;;;;5009640;28;20503;-83
2023/08/31 10:06:43;;;;;;;2.72;0.60;;;46.50;20.50;;;;;;5009766;28;20022;-83
2023/08/31 10:09:12;;;;;;;5.10;0.60;;;;;;;;;;5007867;28;20099;-80
2023/08/31 10:11:39;;;;;;;0.57;0.25;;;42.80;21.80;;;;;;5008918;28;20033;-80
2023/08/31 10:14:05;;;;;;;0.88;0.50;;;;;;;;;;5009852;28;20445;-78
2023/08/31 10:16:32;;;;;;;1.45;0.60;;;46.30;22.30;;;;;;5009722;28;20056;-80
2023/08/31 10:18:58;;;;;;;2.60;0.65;;;48.00;21.40;;;;;;5000262;28;20041;-80
2023/08/31 10:21:23;;;;;;;;;;;49.20;21.00;;;;;;5009940;28;20792;-79
2023/08/31 10:23:50;;;;;;;5.63;0.60;;;49.60;20.60;;;;;;5010035;28;19906;-80
2023/08/31 10:26:30;;;;;;;2.17;0.70;;;49.10;24.30;;;;;;5009370;28;20026;-85
2023/08/31 10:28:57;;;;;;;3.03;0.65;;;48.70;19.90;;;;;;5009768;28;20112;-84
2023/08/31 10:31:23;;;;;;;1.13;0.43;;;49.20;20.40;;;;;;5010046;28;20018;-84
2023/08/31 10:33:57;;;;;;;2.10;1.02;;;49.70;21.50;;;;;;4998878;28;20088;-84
2023/08/31 10:36:35;;;;;;;2.83;0.85;;;50.80;20.10;;;;;;5009153;28;20034;-80
2023/08/31 10:39:15;;;;;;;1.30;0.77;;;52.80;20.10;;;;;;5009646;28;20026;-80
2023/08/31 10:41:41;;;;;;;3.22;0.85;;;53.10;23.10;;;;;;5009372;28;20026;-79
2023/08/31 10:44:23;;;;;;;3.92;0.57;;;53.80;22.80;;;;;;5009579;28;20112;-82
2023/08/31 10:46:50;;;;;;;4.82;0.40;;;54.30;21.20;;;;;;4996632;28;20104;-82
2023/08/31 10:49:18;;;;;;;1.58;0.60;;;54.10;22.60;;;;;;5009101;28;20042;-82
2023/08/31 10:51:46;;;;;;;2.58;1.02;;;53.30;18.50;;;;;;5008969;28;20088;-81
2023/08/31 10:54:20;;;;;;;4.05;0.40;;;51.90;18.90;;;;;;5008339;28;20403;-82
2023/08/31 10:57:02;;;;;;;2.50;0.80;;;52.20;19.30;;;;;;5009702;28;20105;-81
2023/08/31 10:59:51;;;;;;;1.67;0.45;;;52.40;19.00;;;;;;5020776;28;20052;-82
2023/08/31 11:02:39;;;;;;;1.33;0.35;;;51.50;23.10;;;;;;5009096;28;20502;-83
2023/08/31 11:05:17;;;;;;;1.80;1.00;;;51.90;21.00;;;;;;5009328;28;20503;-83
2023/08/31 11:07:47;;;;;;;4.05;0.50;;;50.70;19.10;;;;;;4997240;28;20041;-83
2023/08/31 11:10:19;;;;;;;0.57;0.30;;;50.80;19.40;;;;;;5022525;28;20053;-85
2023/08/31 11:12:46;;;;;;;1.83;0.65;;;51.40;18.60;;;;;;5009170;28;20034;-81
2023/08/31 11:15:20;;;;;;;7.22;0.90;;;51.50;19.10;;;;;;5008943;28;20029;-84
2023/08/31 11:17:46;;;;;;;1.27;0.80;;;;;;;;;;5009069;28;20049;-81
2023/08/31 11:20:17;;;;;;;2.65;0.65;;;52.50;19.30;;;;;;5008933;28;20414;-81
2023/08/31 11:22:44;;;;;;;2.92;0.75;;;52.30;18.80;;;;;;5008770;28;20032;-79
2023/08/31 11:25:12;;;;;;;1.45;0.50;;;51.50;18.40;;;;;;5008575;28;20024;-79
2023/08/31 11:27:39;;;;;;;3.28;0.45;;;;;;;;;;5009007;28;20575;-79
2023/08/31 11:30:27;;;;;;;3.25;0.50;;;50.20;20.70;;;;;;5008684;28;20042;-83
2023/08/31 11:32:54;;;;;;;1.38;0.80;;;;;;;;;;5002897;28;20038;-78
2023/08/31 11:35:21;;;;;;;6.57;0.60;;;51.00;22.50;;;;;;5008599;28;20025;-79
2023/08/31 11:37:51;;;;;;;1.77;0.40;;;51.00;18.60;;;;;;5008621;28;20030;-79
2023/08/31 11:40:17;;;;;;;4.07;0.50;;;;;;;;;;5008344;28;20017;-82
2023/08/31 11:42:43;;;;;;;1.85;0.63;;;;;;;;;;5008598;28;20044;-85
2023/08/31 11:45:12;;;;;;;1.40;0.47;;;48.90;18.40;;;;;;5008952;28;20140;-85
2023/08/31 11:47:39;;;;;;;3.00;0.73;;;;;;;;;;5011190;28;20881;-85
2023/08/31 11:50:06;;;;;;;2.47;0.45;;;47.10;18.60;;;;;;5008685;28;20092;-86
2023/08/31 11:52:33;;;;;;;2.17;0.43;;;;;;;;;;5008442;28;20038;-85
2023/08/31 11:54:59;;;;;;;1.88;0.47;;;;;;;;;;5008077;28;20030;-85
2023/08/31 11:57:28;;;;;;;;;;;40.40;21.20;;;;;;5008933;28;20030;-86
2023/08/31 11:59:55;;;;;;;1.92;0.40;;;39.40;21.70;;;;;;5009173;28;20370;-85
2023/08/31 12:02:22;;;;;;;2.85;0.40;;;;;;;;;;5007763;28;20025;-85
2023/08/31 12:04:48;;;;;;;5.30;1.38;;;38.60;22.10;;;;;;5008711;28;20088;-85
2023/08/31 12:07:18;;;;;;;3.65;0.43;;;37.40;22.60;;;;;;5007870;28;20557;-80
2023/08/31 12:09:44;;;;;;;3.78;0.63;;;;;;;;;;5007875;28;20033;-81
2023/08/31 12:12:10;;;;;;;1.70;0.50;;;;;;;;;;5007411;28;20029;-81
2023/08/31 12:14:39;;;;;;;1.20;0.60;;;36.70;23.20;;;;;;5008267;28;20084;-81
2023/08/31 12:17:07;;;;;;;2.97;0.22;;;36.60;24.50;;;;;;5007024;28;20141;-81
2023/08/31 12:19:36;;;;;;;0.77;0.35;;;36.10;22.80;;;;;;5008473;28;20030;-81
2023/08/31 12:22:02;;;;;;;1.40;0.40;;;;;;;;;;5007626;28;20018;-81
2023/08/31 12:24:28;;;;;;;1.10;0.40;;;;;;;;;;5006259;28;21004;-81
2023/08/31 12:26:54;;;;;;;2.27;1.27;;;34.20;23.40;;;;;;5007380;28;20030;-82
2023/08/31 12:29:20;;;;;;;2.53;0.70;;;;;;;;;;5002949;28;20121;-81
2023/08/31 12:31:46;;;;;;;1.00;0.40;;;;;;;;;;5012934;28;20021;-85
2023/08/31 12:34:12;;;;;;;1.23;0.30;;;;;;;;;;5015571;28;20096;-85
2023/08/31 12:36:40;;;;;;;2.92;0.70;;;;;;;;;;5008253;28;20052;-86
2023/08/31 12:39:09;;;;;;;1.10;0.73;;;;;;;;;;5007801;28;20026;-85
2023/08/31 12:41:35;;;;;;;2.28;0.85;;;;;;;;;;5007637;28;20025;-85
2023/08/31 12:44:03;;;;;;;0.68;0.40;;;;;;;;;;5008489;28;20057;-86
2023/08/31 12:46:44;;;;;;;1.60;0.50;;;32.30;26.20;;;;;;4988310;28;20030;-87
2023/08/31 12:49:29;;;;;;;0.50;0.40;;;31.30;25.90;;;;;;4705152;28;20515;-86
2023/08/31 12:51:59;;;;;;;1.15;0.60;;;;;;;;;;5002885;28;20038;-85
2023/08/31 12:54:25;;;;;;;2.80;0.90;;;;;;;;;;5007447;28;20445;-85
2023/08/31 12:56:50;;;;;;;1.73;0.63;;;30.50;28.90;;;;;;5008022;28;20104;-85
2023/08/31 12:59:16;;;;;;;1.80;0.63;;;;;;;;;;5007870;28;21248;-85
2023/08/31 13:01:42;;;;;;;4.83;0.57;;;;;;;;;;5007079;28;20041;-81
2023/08/31 13:04:08;;;;;;;0.90;0.30;;;;;;;;;;5007148;28;20439;-81
2023/08/31 13:06:34;;;;;;;3.58;0.60;;;;;;;;;;5011741;28;20521;-80
2023/08/31 13:09:00;;;;;;;3.63;0.63;;;;;;;;;;5008093;28;20041;-80
2023/08/31 13:11:26;;;;;;;1.35;0.52;;;;;;;;;;5007209;28;20057;-80
2023/08/31 13:13:52;;;;;;;4.43;0.65;;;;;;;;;;5007488;28;20028;-80
2023/08/31 13:16:18;;;;;;;0.80;0.52;;;;;;;;;;5007339;28;20053;-81
2023/08/31 13:18:44;;;;;;;4.07;0.65;;;;;;;;;;5010819;28;20422;-86
2023/08/31 13:21:10;;;;;;;4.20;0.43;;;;;;;;;;5010966;28;20084;-88
2023/08/31 13:23:36;;;;;;;0.60;0.20;;;;;;;;;;5011210;28;20032;-86
2023/08/31 13:26:02;;;;;;;2.08;1.17;;;;;;;;;;5012080;28;20038;-87
2023/08/31 13:28:29;;;;;;;0.90;0.55;;;;;;;;;;5011315;28;20029;-87
2023/08/31 13:30:57;;;;;;;2.72;0.70;;;29.20;40.50;;;;;;5011362;28;20514;-86
2023/08/31 13:33:24;;;;;;;1.02;0.40;;;;;;;;;;5010648;28;20025;-84
2023/08/31 13:35:50;;;;;;;0.87;0.30;;;;;;;;;;5010916;28;20133;-84
2023/08/31 13:38:16;;;;;;;0.80;0.60;;;;;;;;;;5009904;28;20028;-85
2023/08/31 13:40:42;;;;;;;1.30;0.30;;;;;;;;;;5010947;28;20034;-83
2023/08/31 13:43:08;;;;;;;3.58;0.50;;;;;;;;;;5008537;28;20048;-83
2023/08/31 13:45:34;;;;;;;1.52;0.90;;;;;;;;;;5009914;28;20487;-82
2023/08/31 13:48:00;;;;;;;1.77;0.30;;;;;;;;;;5012910;28;20148;-81
2023/08/31 13:50:27;;;;;;;0.70;0.33;;;29.80;28.40;;;;;;5010524;28;20037;-81
2023/08/31 13:52:53;;;;;;;1.35;0.45;;;;;;;;;;5010025;28;20036;-81
2023/08/31 13:55:19;;;;;;;0.43;0.37;;;;;;;;;;5010116;28;20038;-80
2023/08/31 13:57:45;;;;;;;1.85;0.50;;;;;;;;;;5010385;28;20022;-81
2023/08/31 14:00:12;;;;;;;0.80;0.30;;;28.70;29.10;;;;;;5010683;28;20061;-88
2023/08/31 14:02:38;;;;;;;1.08;0.52;;;28.70;40.90;;;;;;5010699;28;20056;-85
2023/08/31 14:05:06;;;;;;;2.53;0.47;;;;;;;;;;5011064;28;20041;-84
2023/08/31 14:07:32;;;;;;;6.57;0.93;;;;;;;;;;5009694;28;20037;-83
2023/08/31 14:09:58;;;;;;;1.60;0.40;;;;;;;;;;5010633;28;20474;-84